Time;durP1;ratioP1;P1;durP2;ratioP2;P2;SDS_P1;SDS_P2;PMS_P1;PMS_P2;Temp;Humidity;BMP_temperature;BMP_pressure;BME280_temperature;BME280_humidity;BME280_pressure;Samples;Min_cycle;Max_cycle;Signal;HPM_P1;HPM_P2
2024/02/05 00:03:41;;;;;;;22.88;14.43;;;;;;;;;;10299095;28;20489;-60
2024/02/05 00:08:41;;;;;;;21.15;14.07;;;;;;;;;;10297015;28;20023;-60
2024/02/05 00:13:43;;;;;;;22.33;13.82;;;;;;;;;;10317289;28;20036;-60
2024/02/05 00:18:44;;;;;;;21.75;12.85;;;;;;;;;;10325831;28;20058;-60
2024/02/05 00:23:44;;;;;;;18.10;12.70;;;;;;;;;;10330679;28;20027;-60
2024/02/05 00:28:45;;;;;;;22.63;13.88;;;;;;;;;;10325500;28;20062;-60
2024/02/05 00:33:45;;;;;;;21.75;13.23;;;;;;;;;;10331704;28;20391;-60
2024/02/05 00:38:46;;;;;;;20.92;13.52;;;;;;;;;;10330009;28;20383;-60
2024/02/05 00:43:46;;;;;;;18.55;13.07;;;;;;;;;;10329195;28;20030;-60
2024/02/05 00:48:47;;;;;;;20.38;12.73;;;;;;;;;;10330845;28;20038;-60
2024/02/05 00:53:48;;;;;;;21.52;12.80;;;;;;;;;;10330189;28;20031;-60
2024/02/05 00:58:49;;;;;;;18.08;12.00;;;;;;;;;;10328805;28;20038;-60
2024/02/05 01:03:49;;;;;;;19.35;12.98;;;;;;;;;;10329436;28;20027;-60
2024/02/05 01:08:50;;;;;;;18.60;12.90;;;;;;;;;;10322120;28;20045;-61
2024/02/05 01:13:50;;;;;;;22.60;12.68;;;;;;;;;;10320520;28;20079;-61
2024/02/05 01:18:51;;;;;;;16.90;12.23;;;;;;;;;;10329933;28;20023;-61
2024/02/05 01:23:52;;;;;;;18.75;12.82;;;;;;;;;;10329215;28;20035;-60
2024/02/05 01:28:52;;;;;;;17.15;12.43;;;;;;;;;;10324720;28;20057;-60
2024/02/05 01:33:53;;;;;;;19.50;12.57;;;;;;;;;;10327041;28;20182;-59
2024/02/05 01:38:53;;;;;;;18.63;12.68;;;;;;;;;;10327527;28;20042;-59
2024/02/05 01:43:54;;;;;;;23.27;12.77;;;;;;;;;;10328187;28;20030;-59
2024/02/05 01:49:00;;;;;;;18.33;11.48;;;;;;;;;;10328630;28;20102;-59
2024/02/05 01:54:02;;;;;;;18.10;12.60;;;;;;;;;;10342225;28;20035;-59
2024/02/05 01:59:03;;;;;;;18.92;12.13;;;;;;;;;;10328749;28;20049;-59
2024/02/05 02:04:06;;;;;;;20.88;11.88;;;;;;;;;;10322033;28;20064;-59
2024/02/05 02:09:10;;;;;;;16.83;12.13;;;;;;;;;;10314170;28;20080;-59
2024/02/05 02:14:11;;;;;;;17.38;11.25;;;;;;;;;;10321807;28;20114;-59
2024/02/05 02:19:41;;;;;;;17.13;11.65;;;;;;;;;;10325972;28;20400;-58
2024/02/05 02:24:42;;;;;;;17.70;11.70;;;;;;;;;;10314737;28;20042;-60
2024/02/05 02:29:44;;;;;;;15.95;10.90;;;;;;;;;;10324966;28;20118;-60
2024/02/05 02:34:48;;;;;;;16.02;10.98;;;;;;;;;;10325739;28;20030;-60
2024/02/05 02:40:09;;;;;;;16.23;10.95;;;;;;;;;;10320076;28;20112;-60
2024/02/05 02:45:12;;;;;;;18.77;10.70;;;;;;;;;;10340333;28;20557;-60
2024/02/05 02:50:12;;;;;;;15.00;11.50;;;;;;;;;;10325662;28;20041;-60
2024/02/05 02:55:14;;;;;;;18.50;11.68;;;;;;;;;;10321541;28;20025;-60
2024/02/05 03:00:16;;;;;;;17.05;10.98;;;;;;;;;;10318001;28;20537;-60
2024/02/05 03:05:16;;;;;;;13.10;10.50;;;;;;;;;;10323011;28;20196;-59
2024/02/05 03:10:17;;;;;;;14.73;10.15;;;;;;;;;;10320118;28;20121;-59
2024/02/05 03:15:19;;;;;;;16.50;11.07;;;;;;;;;;10321843;28;20026;-59
2024/02/05 03:20:38;;;;;;;14.95;10.35;;;;;;;;;;10318009;28;20038;-60
2024/02/05 03:25:39;;;;;;;16.90;11.50;;;;;;;;;;10324920;28;20034;-60
2024/02/05 03:30:42;;;;;;;15.13;10.43;;;;;;;;;;10310581;28;20038;-60
2024/02/05 03:35:43;;;;;;;14.68;10.88;;;;;;;;;;10323700;28;20473;-60
2024/02/05 03:40:43;;;;;;;17.30;11.02;;;;;;;;;;10323383;28;20034;-60
2024/02/05 03:45:44;;;;;;;15.23;10.15;;;;;;;;;;10325441;28;20031;-60
2024/02/05 03:50:45;;;;;;;16.65;10.52;;;;;;;;;;10323257;28;20038;-60
2024/02/05 03:55:45;;;;;;;16.30;10.95;;;;;;;;;;10323719;28;20184;-60
2024/02/05 04:00:47;;;;;;;13.48;10.20;;;;;;;;;;10321765;28;20046;-60
2024/02/05 04:05:48;;;;;;;12.45;9.60;;;;;;;;;;10319885;28;20402;-60
2024/02/05 04:10:48;;;;;;;15.73;10.32;;;;;;;;;;10324092;28;20434;-60
2024/02/05 04:15:49;;;;;;;15.10;10.52;;;;;;;;;;10322089;28;20497;-60
2024/02/05 04:20:56;;;;;;;14.05;9.60;;;;;;;;;;10321378;28;20054;-60
2024/02/05 04:25:56;;;;;;;15.27;9.93;;;;;;;;;;10321634;28;20122;-60
2024/02/05 04:30:57;;;;;;;13.40;9.73;;;;;;;;;;10312084;28;20402;-60
2024/02/05 04:35:58;;;;;;;14.15;9.68;;;;;;;;;;10322928;28;20050;-60
2024/02/05 04:40:58;;;;;;;16.65;10.50;;;;;;;;;;10319294;28;20035;-60
2024/02/05 04:45:59;;;;;;;14.73;9.65;;;;;;;;;;10321237;28;20066;-60
2024/02/05 04:50:59;;;;;;;14.05;9.77;;;;;;;;;;10321765;28;20038;-59
2024/02/05 04:56:00;;;;;;;14.02;9.77;;;;;;;;;;10322198;28;20502;-59
2024/02/05 05:01:00;;;;;;;12.02;9.93;;;;;;;;;;10310326;28;20371;-59
2024/02/05 05:06:01;;;;;;;14.02;9.63;;;;;;;;;;10324764;28;20050;-60
2024/02/05 05:11:02;;;;;;;11.70;9.57;;;;;;;;;;10329934;28;20045;-59
2024/02/05 05:16:04;;;;;;;12.40;8.98;;;;;;;;;;10323137;28;20027;-60
2024/02/05 05:21:04;;;;;;;11.63;8.95;;;;;;;;;;10315773;28;20073;-60
2024/02/05 05:26:05;;;;;;;12.60;9.15;;;;;;;;;;10314092;28;20037;-60
2024/02/05 05:31:05;;;;;;;12.15;8.98;;;;;;;;;;10328326;28;20394;-60
2024/02/05 05:36:06;;;;;;;13.35;9.30;;;;;;;;;;10328346;28;20057;-61
2024/02/05 05:41:07;;;;;;;12.18;8.57;;;;;;;;;;10320532;28;20078;-60
2024/02/05 05:46:08;;;;;;;13.57;9.00;;;;;;;;;;10326617;28;20046;-60
2024/02/05 05:51:08;;;;;;;11.90;9.10;;;;;;;;;;10319952;28;20038;-60
2024/02/05 05:56:09;;;;;;;10.27;8.15;;;;;;;;;;10328590;28;20037;-60
2024/02/05 06:01:10;;;;;;;11.30;8.77;;;;;;;;;;10326013;28;20092;-60
2024/02/05 06:06:11;;;;;;;11.23;9.23;;;;;;;;;;10328521;28;20545;-61
2024/02/05 06:11:12;;;;;;;11.80;8.43;;;;;;;;;;10328409;28;20038;-61
2024/02/05 06:16:12;;;;;;;11.27;8.68;;;;;;;;;;10313156;28;20029;-60
2024/02/05 06:21:13;;;;;;;12.05;8.50;;;;;;;;;;10324681;28;20282;-61
2024/02/05 06:26:13;;;;;;;13.65;8.70;;;;;;;;;;10317821;28;20423;-61
2024/02/05 06:31:14;;;;;;;11.05;8.82;;;;;;;;;;10327236;28;20057;-61
2024/02/05 06:36:15;;;;;;;9.25;7.95;;;;;;;;;;10327129;28;20390;-62
2024/02/05 06:41:15;;;;;;;13.65;8.73;;;;;;;;;;10322995;28;20030;-59
2024/02/05 06:46:16;;;;;;;12.73;8.48;;;;;;;;;;10329213;28;20533;-60
2024/02/05 06:51:16;;;;;;;10.35;7.90;;;;;;;;;;10320587;28;20363;-60
2024/02/05 06:56:17;;;;;;;11.13;8.57;;;;;;;;;;10321655;28;20061;-61
2024/02/05 07:01:19;;;;;;;22.33;9.25;;;;;;;;;;10322818;28;20440;-60
2024/02/05 07:06:19;;;;;;;14.90;11.30;;;;;;;;;;10319180;28;20034;-60
2024/02/05 07:11:20;;;;;;;17.88;11.63;;;;;;;;;;10326377;28;20577;-60
2024/02/05 07:16:21;;;;;;;18.48;13.35;;;;;;;;;;10320372;28;20097;-59
2024/02/05 07:21:22;;;;;;;22.30;14.30;;;;;;;;;;10308843;28;20049;-59
2024/02/05 07:26:23;;;;;;;20.58;13.93;;;;;;;;;;10305191;28;20027;-60
2024/02/05 07:31:23;;;;;;;20.25;14.20;;;;;;;;;;10325738;28;20472;-59
2024/02/05 07:36:26;;;;;;;23.65;14.90;;;;;;;;;;10324710;28;20042;-59
2024/02/05 07:41:26;;;;;;;23.58;14.40;;;;;;;;;;10314025;28;20034;-59
2024/02/05 07:46:27;;;;;;;24.42;14.95;;;;;;;;;;10323602;28;20153;-59
2024/02/05 07:51:28;;;;;;;27.33;15.70;;;;;;;;;;10324420;28;20045;-59
2024/02/05 07:56:29;;;;;;;28.23;14.82;;;;;;;;;;10324616;28;20026;-59
2024/02/05 08:01:30;;;;;;;21.35;14.20;;;;;;;;;;10323033;28;20497;-59
2024/02/05 08:06:32;;;;;;;22.25;15.20;;;;;;;;;;10323067;28;20058;-59
2024/02/05 08:11:33;;;;;;;23.38;14.55;;;;;;;;;;10324114;28;20497;-59
2024/02/05 08:16:33;;;;;;;26.05;15.77;;;;;;;;;;10311582;28;20117;-59
2024/02/05 08:21:36;;;;;;;20.63;14.35;;;;;;;;;;10310015;28;20537;-59
2024/02/05 08:26:36;;;;;;;22.02;14.20;;;;;;;;;;10309186;28;20513;-59
2024/02/05 08:31:37;;;;;;;23.58;14.10;;;;;;;;;;10322992;28;20031;-59
2024/02/05 08:36:37;;;;;;;22.05;14.10;;;;;;;;;;10297554;28;20061;-59
2024/02/05 08:41:38;;;;;;;25.48;15.60;;;;;;;;;;10329476;28;20026;-59
2024/02/05 08:46:39;;;;;;;19.30;13.38;;;;;;;;;;10318045;28;20154;-59
2024/02/05 08:51:39;;;;;;;24.55;13.68;;;;;;;;;;10331495;28;20037;-59
2024/02/05 08:56:40;;;;;;;19.27;14.05;;;;;;;;;;10305436;28;20081;-59
2024/02/05 09:01:42;;;;;;;22.30;12.57;;;;;;;;;;10319697;28;20038;-59
2024/02/05 09:06:43;;;;;;;21.55;13.98;;;;;;;;;;10327305;28;20096;-59
2024/02/05 09:11:44;;;;;;;24.55;14.13;;;;;;;;;;10329698;28;20225;-59
2024/02/05 09:16:45;;;;;;;20.17;13.02;;;;;;;;;;10330067;28;20181;-59
2024/02/05 09:21:45;;;;;;;20.20;13.88;;;;;;;;;;10317367;28;20069;-59
2024/02/05 09:26:46;;;;;;;22.77;13.52;;;;;;;;;;10318954;28;20034;-59
2024/02/05 09:31:46;;;;;;;20.90;14.05;;;;;;;;;;10329057;28;20030;-59
2024/02/05 09:36:48;;;;;;;24.70;13.55;;;;;;;;;;10319457;28;20089;-59
2024/02/05 09:41:50;;;;;;;17.85;13.13;;;;;;;;;;10326834;28;20141;-59
2024/02/05 09:46:53;;;;;;;18.90;12.98;;;;;;;;;;10340362;28;20026;-59
2024/02/05 09:51:54;;;;;;;19.20;13.27;;;;;;;;;;10318783;28;20270;-59
2024/02/05 09:56:55;;;;;;;23.10;12.90;;;;;;;;;;10323889;28;20117;-59
2024/02/05 10:01:57;;;;;;;20.80;14.20;;;;;;;;;;10313936;28;20038;-59
2024/02/05 10:06:59;;;;;;;19.48;14.13;;;;;;;;;;10327303;28;20026;-59
2024/02/05 10:12:02;;;;;;;21.38;13.52;;;;;;;;;;10315581;28;20030;-59
2024/02/05 10:17:02;;;;;;;18.52;13.35;;;;;;;;;;10313497;28;20037;-59
2024/02/05 10:22:06;;;;;;;21.58;12.88;;;;;;;;;;10316234;28;20053;-59
2024/02/05 10:27:07;;;;;;;18.67;13.40;;;;;;;;;;10305101;28;20498;-59
2024/02/05 10:32:07;;;;;;;20.23;12.48;;;;;;;;;;10326850;28;20029;-60
2024/02/05 10:37:10;;;;;;;22.52;13.40;;;;;;;;;;10326925;28;20038;-59
2024/02/05 10:42:10;;;;;;;18.65;13.07;;;;;;;;;;10325984;28;20034;-59
2024/02/05 10:47:19;;;;;;;18.67;12.90;;;;;;;;;;10325359;28;20030;-59
2024/02/05 10:52:20;;;;;;;;;;;;;;;;;;10327403;28;20029;-59
2024/02/05 10:57:23;;;;;;;17.17;11.98;;;;;;;;;;10325132;28;19924;-59
2024/02/05 11:02:33;;;;;;;18.98;12.50;;;;;;;;;;10324119;28;20398;-59
2024/02/05 11:07:46;;;;;;;18.90;12.32;;;;;;;;;;10340392;28;20393;-59
2024/02/05 11:12:50;;;;;;;19.35;12.95;;;;;;;;;;10324936;28;20386;-59
2024/02/05 11:17:53;;;;;;;17.60;12.77;;;;;;;;;;10339700;28;20034;-59
2024/02/05 11:22:55;;;;;;;21.80;12.13;;;;;;;;;;10312536;28;20036;-59
2024/02/05 11:27:56;;;;;;;19.80;12.98;;;;;;;;;;10311874;28;20034;-59
2024/02/05 11:32:57;;;;;;;17.15;11.95;;;;;;;;;;10324774;28;20030;-59
2024/02/05 11:38:08;;;;;;;19.73;12.35;;;;;;;;;;10312717;28;20076;-59
2024/02/05 11:43:10;;;;;;;17.38;12.70;;;;;;;;;;10304711;28;20053;-59
2024/02/05 11:48:11;;;;;;;16.88;12.55;;;;;;;;;;10321008;28;20066;-59
2024/02/05 11:53:14;;;;;;;20.60;13.07;;;;;;;;;;10339644;28;20042;-60
2024/02/05 11:58:15;;;;;;;17.15;12.90;;;;;;;;;;10320511;28;20034;-59
2024/02/05 12:03:15;;;;;;;17.88;12.57;;;;;;;;;;10323482;28;20023;-60
2024/02/05 12:08:16;;;;;;;19.95;12.45;;;;;;;;;;10323524;28;20109;-59
2024/02/05 12:13:17;;;;;;;19.23;12.13;;;;;;;;;;10323922;28;20031;-59
2024/02/05 12:18:17;;;;;;;15.77;12.00;;;;;;;;;;10322527;28;20108;-59
2024/02/05 12:23:18;;;;;;;16.17;11.85;;;;;;;;;;10311513;28;20481;-59
2024/02/05 12:28:19;;;;;;;17.95;11.48;;;;;;;;;;10323776;28;20512;-59
2024/02/05 12:33:19;;;;;;;15.95;11.00;;;;;;;;;;10310036;28;20035;-60
2024/02/05 12:38:20;;;;;;;13.90;11.25;;;;;;;;;;10322940;28;20080;-59
2024/02/05 12:43:24;;;;;;;18.80;11.88;;;;;;;;;;10323703;28;20041;-59
2024/02/05 12:48:25;;;;;;;16.15;10.50;;;;;;;;;;10305343;28;20121;-59
2024/02/05 12:53:26;;;;;;;18.27;11.93;;;;;;;;;;10315040;28;20104;-59
2024/02/05 12:58:27;;;;;;;14.15;10.63;;;;;;;;;;10321914;28;20541;-59
2024/02/05 13:03:33;;;;;;;16.17;11.00;;;;;;;;;;10337876;28;20157;-59
2024/02/05 13:08:33;;;;;;;14.55;10.57;;;;;;;;;;10319898;28;20486;-60
2024/02/05 13:13:34;;;;;;;15.57;10.68;;;;;;;;;;10309942;28;20038;-59
2024/02/05 13:18:35;;;;;;;14.43;10.23;;;;;;;;;;10321790;28;20049;-60
2024/02/05 13:23:35;;;;;;;12.98;9.82;;;;;;;;;;10322148;28;20073;-59
2024/02/05 13:28:39;;;;;;;13.93;10.77;;;;;;;;;;10329572;28;20105;-59
2024/02/05 13:33:39;;;;;;;14.10;9.98;;;;;;;;;;10328195;28;20281;-59
2024/02/05 13:38:40;;;;;;;13.13;9.73;;;;;;;;;;10317745;28;20267;-59
2024/02/05 13:43:41;;;;;;;14.50;10.45;;;;;;;;;;10317644;28;20031;-59
2024/02/05 13:48:41;;;;;;;15.48;9.93;;;;;;;;;;10311041;28;20200;-59
2024/02/05 13:53:42;;;;;;;13.82;9.82;;;;;;;;;;10305536;28;20035;-59
2024/02/05 13:58:43;;;;;;;16.50;9.73;;;;;;;;;;10321118;28;20037;-59
2024/02/05 14:03:43;;;;;;;14.60;9.95;;;;;;;;;;10326073;28;20027;-59
2024/02/05 14:08:44;;;;;;;14.77;9.75;;;;;;;;;;10315505;28;20034;-59
2024/02/05 14:13:45;;;;;;;12.75;9.82;;;;;;;;;;10325330;28;20033;-60
2024/02/05 14:18:46;;;;;;;13.18;9.68;;;;;;;;;;10308849;28;20368;-59
2024/02/05 14:23:46;;;;;;;14.30;10.82;;;;;;;;;;10311202;28;20026;-59
2024/02/05 14:28:47;;;;;;;14.82;9.43;;;;;;;;;;10306707;28;20226;-59
2024/02/05 14:33:47;;;;;;;16.35;10.00;;;;;;;;;;10297150;28;20027;-59
2024/02/05 14:38:48;;;;;;;13.85;10.73;;;;;;;;;;10316521;28;20039;-59
2024/02/05 14:43:48;;;;;;;16.52;10.07;;;;;;;;;;10316078;28;20030;-59
2024/02/05 14:48:49;;;;;;;14.45;10.48;;;;;;;;;;10314452;28;20058;-59
2024/02/05 14:53:50;;;;;;;14.60;10.02;;;;;;;;;;10321642;28;20039;-59
2024/02/05 14:58:50;;;;;;;14.00;10.15;;;;;;;;;;10303880;28;20409;-59
2024/02/05 15:03:51;;;;;;;13.82;10.02;;;;;;;;;;10316952;28;20446;-59
2024/02/05 15:08:52;;;;;;;13.35;9.70;;;;;;;;;;10324661;28;20027;-59
2024/02/05 15:13:53;;;;;;;11.82;8.98;;;;;;;;;;10312920;28;20026;-59
2024/02/05 15:18:53;;;;;;;11.30;8.95;;;;;;;;;;10324968;28;20041;-59
2024/02/05 15:23:54;;;;;;;13.00;9.48;;;;;;;;;;10312788;28;20042;-59
2024/02/05 15:28:55;;;;;;;14.05;9.05;;;;;;;;;;10315210;28;20022;-59
2024/02/05 15:33:55;;;;;;;13.70;10.00;;;;;;;;;;10323725;28;20033;-59
2024/02/05 15:38:56;;;;;;;12.65;9.65;;;;;;;;;;10324139;28;20521;-59
2024/02/05 15:43:57;;;;;;;14.60;9.70;;;;;;;;;;10323724;28;20363;-59
2024/02/05 15:48:57;;;;;;;11.70;9.13;;;;;;;;;;10320577;28;20121;-60
2024/02/05 15:53:58;;;;;;;14.43;9.27;;;;;;;;;;10324466;28;20030;-59
2024/02/05 15:58:59;;;;;;;13.35;8.68;;;;;;;;;;10324337;28;20030;-59
2024/02/05 16:03:59;;;;;;;11.52;8.80;;;;;;;;;;10310819;28;20034;-59
2024/02/05 16:09:00;;;;;;;11.90;8.88;;;;;;;;;;10322323;28;20034;-59
2024/02/05 16:14:01;;;;;;;15.55;9.85;;;;;;;;;;10322821;28;20060;-59
2024/02/05 16:19:02;;;;;;;11.40;8.73;;;;;;;;;;10311039;28;20466;-59
2024/02/05 16:24:03;;;;;;;11.10;8.60;;;;;;;;;;10321627;28;20034;-59
2024/02/05 16:29:03;;;;;;;12.23;9.02;;;;;;;;;;10321671;28;20045;-60
2024/02/05 16:34:04;;;;;;;12.35;8.98;;;;;;;;;;10323533;28;20039;-59
2024/02/05 16:39:05;;;;;;;13.43;9.75;;;;;;;;;;10322911;28;20046;-59
2024/02/05 16:44:05;;;;;;;13.73;10.05;;;;;;;;;;10300966;28;20042;-59
2024/02/05 16:49:06;;;;;;;16.05;9.73;;;;;;;;;;10323380;28;20045;-59
2024/02/05 16:54:06;;;;;;;15.55;10.00;;;;;;;;;;10322945;28;20026;-59
2024/02/05 16:59:07;;;;;;;12.13;9.20;;;;;;;;;;10324315;28;20030;-59
2024/02/05 17:04:07;;;;;;;15.60;10.38;;;;;;;;;;10328379;28;20043;-59
2024/02/05 17:09:08;;;;;;;12.68;9.40;;;;;;;;;;10328056;28;20027;-59
2024/02/05 17:14:09;;;;;;;15.00;10.13;;;;;;;;;;10330645;28;20084;-59
2024/02/05 17:19:09;;;;;;;17.00;10.23;;;;;;;;;;10324384;28;20042;-58
2024/02/05 17:24:10;;;;;;;15.98;9.68;;;;;;;;;;10314703;28;20390;-59
2024/02/05 17:29:11;;;;;;;11.73;8.95;;;;;;;;;;10316682;28;20034;-59
2024/02/05 17:34:11;;;;;;;12.15;9.75;;;;;;;;;;10328512;28;20035;-59
2024/02/05 17:39:12;;;;;;;14.75;9.25;;;;;;;;;;10321884;28;20052;-59
2024/02/05 17:44:12;;;;;;;15.32;9.30;;;;;;;;;;10318303;28;20034;-59
2024/02/05 17:49:13;;;;;;;11.90;9.05;;;;;;;;;;10327205;28;20034;-59
2024/02/05 17:54:14;;;;;;;16.20;9.70;;;;;;;;;;10328265;28;20529;-60
2024/02/05 17:59:18;;;;;;;11.30;8.85;;;;;;;;;;10327625;28;20026;-60
2024/02/05 18:04:19;;;;;;;13.65;9.27;;;;;;;;;;10314246;28;20034;-59
2024/02/05 18:09:19;;;;;;;13.50;9.38;;;;;;;;;;10320661;28;20060;-59
2024/02/05 18:14:20;;;;;;;13.10;9.52;;;;;;;;;;10322414;28;20033;-60
2024/02/05 18:19:21;;;;;;;13.90;9.38;;;;;;;;;;10327348;28;20470;-59
2024/02/05 18:24:21;;;;;;;14.55;10.32;;;;;;;;;;10324142;28;20490;-59
2024/02/05 18:29:22;;;;;;;16.98;10.20;;;;;;;;;;10325327;28;20034;-59
2024/02/05 18:34:23;;;;;;;19.92;10.48;;;;;;;;;;10323265;28;20321;-59
2024/02/05 18:39:23;;;;;;;12.88;9.50;;;;;;;;;;10320483;28;20061;-59
2024/02/05 18:44:24;;;;;;;14.73;10.77;;;;;;;;;;10320620;28;20254;-59
2024/02/05 18:49:27;;;;;;;13.57;10.10;;;;;;;;;;10312824;28;20450;-59
2024/02/05 18:54:33;;;;;;;14.45;10.93;;;;;;;;;;10317615;28;20438;-59
2024/02/05 18:59:35;;;;;;;16.88;10.18;;;;;;;;;;10317003;28;20317;-59
2024/02/05 19:04:35;;;;;;;16.08;10.27;;;;;;;;;;10301902;28;20049;-59
2024/02/05 19:09:36;;;;;;;16.95;11.25;;;;;;;;;;10318738;28;20037;-59
2024/02/05 19:14:36;;;;;;;15.15;10.45;;;;;;;;;;10312729;28;20035;-59
2024/02/05 19:19:37;;;;;;;15.02;10.52;;;;;;;;;;10314903;28;20030;-59
2024/02/05 19:24:38;;;;;;;16.40;10.43;;;;;;;;;;10310355;28;20305;-59
2024/02/05 19:29:39;;;;;;;18.40;11.07;;;;;;;;;;10313446;28;20643;-61
2024/02/05 19:34:40;;;;;;;15.38;11.18;;;;;;;;;;10310290;28;20031;-59
2024/02/05 19:39:40;;;;;;;15.35;10.52;;;;;;;;;;10320092;28;20046;-60
2024/02/05 19:44:44;;;;;;;13.93;10.80;;;;;;;;;;10320373;28;20026;-59
2024/02/05 19:49:45;;;;;;;15.73;10.65;;;;;;;;;;10315445;28;20031;-59
2024/02/05 19:54:46;;;;;;;17.70;11.35;;;;;;;;;;10322433;28;20590;-59
2024/02/05 19:59:47;;;;;;;15.52;10.68;;;;;;;;;;10321275;28;20313;-60
2024/02/05 20:04:47;;;;;;;13.50;9.98;;;;;;;;;;10318773;28;20030;-59
2024/02/05 20:09:48;;;;;;;16.35;10.43;;;;;;;;;;10317659;28;20407;-59
2024/02/05 20:14:48;;;;;;;13.18;9.20;;;;;;;;;;10311425;28;20386;-59
2024/02/05 20:19:49;;;;;;;14.10;9.77;;;;;;;;;;10312870;28;20041;-60
2024/02/05 20:24:51;;;;;;;15.35;10.00;;;;;;;;;;10299558;28;20054;-59
2024/02/05 20:29:52;;;;;;;13.30;9.45;;;;;;;;;;10303386;28;20316;-59
2024/02/05 20:34:53;;;;;;;16.20;9.32;;;;;;;;;;10314767;28;20525;-60
2024/02/05 20:39:54;;;;;;;13.30;9.23;;;;;;;;;;10333904;28;20057;-60
2024/02/05 20:44:54;;;;;;;16.23;9.60;;;;;;;;;;10321800;28;20042;-60
2024/02/05 20:49:55;;;;;;;13.32;9.80;;;;;;;;;;10327591;28;20034;-59
2024/02/05 20:54:58;;;;;;;20.92;9.05;;;;;;;;;;10327858;28;20030;-62
2024/02/05 20:59:58;;;;;;;15.70;9.70;;;;;;;;;;10322722;28;20042;-59
2024/02/05 21:04:59;;;;;;;15.45;8.90;;;;;;;;;;10321537;28;20038;-49
2024/02/05 21:10:00;;;;;;;14.30;8.52;;;;;;;;;;10324436;28;20034;-48
2024/02/05 21:15:00;;;;;;;17.27;9.15;;;;;;;;;;10326867;28;20418;-50
2024/02/05 21:20:03;;;;;;;20.52;8.73;;;;;;;;;;10328548;28;20552;-59
2024/02/05 21:25:04;;;;;;;14.43;8.10;;;;;;;;;;10321594;28;20338;-59
2024/02/05 21:30:05;;;;;;;14.75;7.60;;;;;;;;;;10327218;28;20084;-59
2024/02/05 21:35:08;;;;;;;14.27;8.00;;;;;;;;;;10336091;28;20036;-59
2024/02/05 21:40:09;;;;;;;11.20;8.55;;;;;;;;;;10327306;28;20061;-59
2024/02/05 21:45:10;;;;;;;13.80;7.45;;;;;;;;;;10311615;28;20038;-59
2024/02/05 21:50:11;;;;;;;11.32;7.47;;;;;;;;;;10322177;28;20031;-59
2024/02/05 21:55:12;;;;;;;12.75;7.75;;;;;;;;;;10296392;28;20034;-59
2024/02/05 22:00:13;;;;;;;13.18;7.53;;;;;;;;;;10313485;28;20406;-59
2024/02/05 22:05:13;;;;;;;11.88;7.40;;;;;;;;;;10310672;28;20037;-59
2024/02/05 22:10:14;;;;;;;21.10;7.55;;;;;;;;;;10327531;28;20471;-59
2024/02/05 22:15:15;;;;;;;13.38;6.97;;;;;;;;;;10321319;28;20038;-60
2024/02/05 22:20:15;;;;;;;12.43;7.60;;;;;;;;;;10327450;28;20030;-59
2024/02/05 22:25:17;;;;;;;12.80;7.18;;;;;;;;;;10324828;28;20053;-59
2024/02/05 22:30:17;;;;;;;11.43;7.28;;;;;;;;;;10327255;28;20538;-59
2024/02/05 22:35:19;;;;;;;15.18;8.02;;;;;;;;;;10325056;28;20037;-59
2024/02/05 22:40:20;;;;;;;12.00;7.40;;;;;;;;;;10327152;28;20034;-59
2024/02/05 22:45:20;;;;;;;11.73;8.13;;;;;;;;;;10327361;28;20022;-59
2024/02/05 22:50:21;;;;;;;10.20;7.68;;;;;;;;;;10326900;28;20105;-59
2024/02/05 22:55:21;;;;;;;13.48;8.07;;;;;;;;;;10326775;28;20026;-59
2024/02/05 23:05:25;;;;;;;11.52;7.45;;;;;;;;;;10322968;28;20027;-59
2024/02/05 23:10:26;;;;;;;9.18;7.60;;;;;;;;;;10321924;28;20034;-60
2024/02/05 23:15:27;;;;;;;9.93;7.22;;;;;;;;;;10319891;28;20509;-59
2024/02/05 23:20:27;;;;;;;10.65;7.43;;;;;;;;;;10325039;28;20030;-59
2024/02/05 23:25:28;;;;;;;10.13;7.85;;;;;;;;;;10325166;28;20030;-60
2024/02/05 23:30:28;;;;;;;9.35;7.38;;;;;;;;;;10324188;28;20121;-60
2024/02/05 23:35:29;;;;;;;15.32;8.40;;;;;;;;;;10324259;28;20033;-60
2024/02/05 23:40:31;;;;;;;14.10;7.55;;;;;;;;;;10320705;28;20495;-59
2024/02/05 23:45:35;;;;;;;11.05;7.38;;;;;;;;;;10313309;28;20035;-60
2024/02/05 23:50:35;;;;;;;13.15;7.93;;;;;;;;;;10322637;28;20031;-60
2024/02/05 23:55:37;;;;;;;11.02;7.50;;;;;;;;;;10323680;28;20438;-60
